sensor_id;sensor_type;location;lat;lon;timestamp;temperature;humidity
64817;DHT22;69411;45.656;11.740;2023-07-16T00:01:01;25.40;72.40
64817;DHT22;69411;45.656;11.740;2023-07-16T00:03:27;25.40;72.50
64817;DHT22;69411;45.656;11.740;2023-07-16T00:05:53;25.30;72.50
64817;DHT22;69411;45.656;11.740;2023-07-16T00:08:19;25.30;72.60
64817;DHT22;69411;45.656;11.740;2023-07-16T00:10:44;25.30;72.70
64817;DHT22;69411;45.656;11.740;2023-07-16T00:13:10;25.20;72.70
64817;DHT22;69411;45.656;11.740;2023-07-16T00:15:36;25.20;72.90
64817;DHT22;69411;45.656;11.740;2023-07-16T00:18:03;25.20;72.90
64817;DHT22;69411;45.656;11.740;2023-07-16T00:20:30;25.10;73.00
64817;DHT22;69411;45.656;11.740;2023-07-16T00:22:56;25.10;73.10
64817;DHT22;69411;45.656;11.740;2023-07-16T00:25:22;25.10;73.20
64817;DHT22;69411;45.656;11.740;2023-07-16T00:27:48;25.10;73.20
64817;DHT22;69411;45.656;11.740;2023-07-16T00:30:14;25.10;73.10
64817;DHT22;69411;45.656;11.740;2023-07-16T00:32:40;25.00;73.20
64817;DHT22;69411;45.656;11.740;2023-07-16T00:35:06;25.00;73.20
64817;DHT22;69411;45.656;11.740;2023-07-16T00:37:34;25.00;73.40
64817;DHT22;69411;45.656;11.740;2023-07-16T00:40:00;25.00;73.40
64817;DHT22;69411;45.656;11.740;2023-07-16T00:42:26;24.90;73.40
64817;DHT22;69411;45.656;11.740;2023-07-16T00:44:52;24.90;73.40
64817;DHT22;69411;45.656;11.740;2023-07-16T00:47:18;24.90;73.50
64817;DHT22;69411;45.656;11.740;2023-07-16T00:49:45;24.90;73.70
64817;DHT22;69411;45.656;11.740;2023-07-16T00:52:16;24.90;73.70
64817;DHT22;69411;45.656;11.740;2023-07-16T00:54:45;24.80;73.90
64817;DHT22;69411;45.656;11.740;2023-07-16T00:57:11;24.80;73.90
64817;DHT22;69411;45.656;11.740;2023-07-16T00:59:37;24.80;74.00
64817;DHT22;69411;45.656;11.740;2023-07-16T01:02:03;24.80;74.10
64817;DHT22;69411;45.656;11.740;2023-07-16T01:04:30;24.70;74.20
64817;DHT22;69411;45.656;11.740;2023-07-16T01:07:01;24.70;74.10
64817;DHT22;69411;45.656;11.740;2023-07-16T01:09:32;24.80;74.10
64817;DHT22;69411;45.656;11.740;2023-07-16T01:12:00;24.70;74.10
64817;DHT22;69411;45.656;11.740;2023-07-16T01:14:27;24.70;74.10
64817;DHT22;69411;45.656;11.740;2023-07-16T01:16:53;24.70;74.20
64817;DHT22;69411;45.656;11.740;2023-07-16T01:19:25;24.60;74.30
64817;DHT22;69411;45.656;11.740;2023-07-16T01:30:02;24.50;74.80
64817;DHT22;69411;45.656;11.740;2023-07-16T01:32:31;24.50;74.80
64817;DHT22;69411;45.656;11.740;2023-07-16T01:34:57;24.50;74.80
64817;DHT22;69411;45.656;11.740;2023-07-16T01:37:24;24.50;74.70
64817;DHT22;69411;45.656;11.740;2023-07-16T01:39:50;24.60;74.90
64817;DHT22;69411;45.656;11.740;2023-07-16T01:42:16;24.60;74.90
64817;DHT22;69411;45.656;11.740;2023-07-16T01:44:42;24.60;74.90
64817;DHT22;69411;45.656;11.740;2023-07-16T01:49:55;24.50;75.00
64817;DHT22;69411;45.656;11.740;2023-07-16T01:52:21;24.50;75.00
64817;DHT22;69411;45.656;11.740;2023-07-16T01:54:47;24.50;75.00
64817;DHT22;69411;45.656;11.740;2023-07-16T01:57:14;24.50;75.10
64817;DHT22;69411;45.656;11.740;2023-07-16T01:59:40;24.50;75.00
64817;DHT22;69411;45.656;11.740;2023-07-16T02:02:06;24.50;75.10
64817;DHT22;69411;45.656;11.740;2023-07-16T02:04:32;24.50;75.10
64817;DHT22;69411;45.656;11.740;2023-07-16T02:06:57;24.40;75.20
64817;DHT22;69411;45.656;11.740;2023-07-16T02:09:23;24.40;75.20
64817;DHT22;69411;45.656;11.740;2023-07-16T02:11:55;24.40;75.20
64817;DHT22;69411;45.656;11.740;2023-07-16T02:14:23;24.40;75.30
64817;DHT22;69411;45.656;11.740;2023-07-16T02:16:49;24.40;75.40
64817;DHT22;69411;45.656;11.740;2023-07-16T02:19:15;24.30;75.30
64817;DHT22;69411;45.656;11.740;2023-07-16T02:21:41;24.30;75.40
64817;DHT22;69411;45.656;11.740;2023-07-16T02:24:07;24.20;75.30
64817;DHT22;69411;45.656;11.740;2023-07-16T02:26:33;24.20;75.40
64817;DHT22;69411;45.656;11.740;2023-07-16T02:28:58;24.20;75.50
64817;DHT22;69411;45.656;11.740;2023-07-16T02:31:25;24.10;75.60
64817;DHT22;69411;45.656;11.740;2023-07-16T02:33:51;24.10;75.60
64817;DHT22;69411;45.656;11.740;2023-07-16T02:36:17;24.00;75.70
64817;DHT22;69411;45.656;11.740;2023-07-16T02:38:43;24.00;75.70
64817;DHT22;69411;45.656;11.740;2023-07-16T02:41:09;24.00;75.80
64817;DHT22;69411;45.656;11.740;2023-07-16T02:43:35;24.00;75.80
64817;DHT22;69411;45.656;11.740;2023-07-16T02:46:01;23.90;75.90
64817;DHT22;69411;45.656;11.740;2023-07-16T02:48:28;23.90;76.00
64817;DHT22;69411;45.656;11.740;2023-07-16T02:50:54;23.90;76.10
64817;DHT22;69411;45.656;11.740;2023-07-16T02:53:19;23.80;76.20
64817;DHT22;69411;45.656;11.740;2023-07-16T02:55:45;23.80;76.30
64817;DHT22;69411;45.656;11.740;2023-07-16T02:58:12;23.80;76.30
64817;DHT22;69411;45.656;11.740;2023-07-16T03:00:38;23.80;76.30
64817;DHT22;69411;45.656;11.740;2023-07-16T03:03:04;23.80;76.40
64817;DHT22;69411;45.656;11.740;2023-07-16T03:05:30;23.70;76.40
64817;DHT22;69411;45.656;11.740;2023-07-16T03:07:56;23.70;76.50
64817;DHT22;69411;45.656;11.740;2023-07-16T03:10:22;23.70;76.60
64817;DHT22;69411;45.656;11.740;2023-07-16T03:12:48;23.70;76.70
64817;DHT22;69411;45.656;11.740;2023-07-16T03:15:14;23.70;76.70
64817;DHT22;69411;45.656;11.740;2023-07-16T03:17:40;23.70;76.70
64817;DHT22;69411;45.656;11.740;2023-07-16T03:20:06;23.70;76.80
64817;DHT22;69411;45.656;11.740;2023-07-16T03:22:33;23.70;76.80
64817;DHT22;69411;45.656;11.740;2023-07-16T03:24:59;23.70;76.80
64817;DHT22;69411;45.656;11.740;2023-07-16T03:27:25;23.70;76.80
64817;DHT22;69411;45.656;11.740;2023-07-16T03:29:53;23.70;76.70
64817;DHT22;69411;45.656;11.740;2023-07-16T03:32:19;23.80;76.70
64817;DHT22;69411;45.656;11.740;2023-07-16T03:34:45;23.80;76.60
64817;DHT22;69411;45.656;11.740;2023-07-16T03:37:10;23.80;76.60
64817;DHT22;69411;45.656;11.740;2023-07-16T03:39:36;23.80;76.50
64817;DHT22;69411;45.656;11.740;2023-07-16T03:42:03;23.70;76.50
64817;DHT22;69411;45.656;11.740;2023-07-16T03:44:29;23.70;76.60
64817;DHT22;69411;45.656;11.740;2023-07-16T03:46:56;23.70;76.60
64817;DHT22;69411;45.656;11.740;2023-07-16T03:49:22;23.70;76.60
64817;DHT22;69411;45.656;11.740;2023-07-16T03:51:48;23.70;76.60
64817;DHT22;69411;45.656;11.740;2023-07-16T03:54:14;23.70;76.60
64817;DHT22;69411;45.656;11.740;2023-07-16T03:56:40;23.70;76.60
64817;DHT22;69411;45.656;11.740;2023-07-16T03:59:06;23.70;76.60
64817;DHT22;69411;45.656;11.740;2023-07-16T04:01:32;23.70;76.60
64817;DHT22;69411;45.656;11.740;2023-07-16T04:03:58;23.60;76.50
64817;DHT22;69411;45.656;11.740;2023-07-16T04:06:23;23.70;76.50
64817;DHT22;69411;45.656;11.740;2023-07-16T04:08:49;23.70;76.40
64817;DHT22;69411;45.656;11.740;2023-07-16T04:11:15;23.70;76.40
64817;DHT22;69411;45.656;11.740;2023-07-16T04:13:41;23.80;76.30
64817;DHT22;69411;45.656;11.740;2023-07-16T04:16:07;23.90;76.30
64817;DHT22;69411;45.656;11.740;2023-07-16T04:18:33;23.90;76.20
64817;DHT22;69411;45.656;11.740;2023-07-16T04:21:00;24.00;76.10
64817;DHT22;69411;45.656;11.740;2023-07-16T04:23:26;24.00;76.00
64817;DHT22;69411;45.656;11.740;2023-07-16T04:25:53;24.10;75.90
64817;DHT22;69411;45.656;11.740;2023-07-16T04:28:20;24.20;75.70
64817;DHT22;69411;45.656;11.740;2023-07-16T04:30:46;24.30;75.70
64817;DHT22;69411;45.656;11.740;2023-07-16T04:33:12;24.30;75.70
64817;DHT22;69411;45.656;11.740;2023-07-16T04:35:38;24.50;75.60
64817;DHT22;69411;45.656;11.740;2023-07-16T04:38:05;24.60;75.40
64817;DHT22;69411;45.656;11.740;2023-07-16T04:40:31;24.80;75.00
64817;DHT22;69411;45.656;11.740;2023-07-16T04:42:57;24.90;74.80
64817;DHT22;69411;45.656;11.740;2023-07-16T04:45:23;25.10;74.60
64817;DHT22;69411;45.656;11.740;2023-07-16T04:47:49;25.30;74.60
64817;DHT22;69411;45.656;11.740;2023-07-16T04:50:15;25.90;74.20
64817;DHT22;69411;45.656;11.740;2023-07-16T04:52:41;26.70;72.80
64817;DHT22;69411;45.656;11.740;2023-07-16T04:55:07;27.70;71.00
64817;DHT22;69411;45.656;11.740;2023-07-16T04:57:34;28.70;69.00
64817;DHT22;69411;45.656;11.740;2023-07-16T05:00:00;29.60;67.00
64817;DHT22;69411;45.656;11.740;2023-07-16T05:02:26;30.60;64.80
64817;DHT22;69411;45.656;11.740;2023-07-16T05:04:52;31.40;62.60
64817;DHT22;69411;45.656;11.740;2023-07-16T05:07:18;32.30;60.50
64817;DHT22;69411;45.656;11.740;2023-07-16T05:09:44;33.10;58.50
64817;DHT22;69411;45.656;11.740;2023-07-16T05:12:10;33.80;56.30
64817;DHT22;69411;45.656;11.740;2023-07-16T05:14:47;34.50;54.50
64817;DHT22;69411;45.656;11.740;2023-07-16T05:17:13;35.00;52.80
64817;DHT22;69411;45.656;11.740;2023-07-16T05:19:39;35.50;51.10
64817;DHT22;69411;45.656;11.740;2023-07-16T05:22:06;36.00;50.00
64817;DHT22;69411;45.656;11.740;2023-07-16T05:24:32;36.40;48.80
64817;DHT22;69411;45.656;11.740;2023-07-16T05:26:58;36.80;47.40
64817;DHT22;69411;45.656;11.740;2023-07-16T05:29:24;37.10;46.60
64817;DHT22;69411;45.656;11.740;2023-07-16T05:31:51;37.50;45.70
64817;DHT22;69411;45.656;11.740;2023-07-16T05:34:17;37.80;45.10
64817;DHT22;69411;45.656;11.740;2023-07-16T05:36:43;38.20;44.50
64817;DHT22;69411;45.656;11.740;2023-07-16T05:39:12;38.60;43.70
64817;DHT22;69411;45.656;11.740;2023-07-16T05:41:39;39.10;42.80
64817;DHT22;69411;45.656;11.740;2023-07-16T05:44:05;39.50;42.10
64817;DHT22;69411;45.656;11.740;2023-07-16T05:46:32;40.00;41.80
64817;DHT22;69411;45.656;11.740;2023-07-16T05:48:58;40.50;41.10
64817;DHT22;69411;45.656;11.740;2023-07-16T05:51:24;40.90;40.10
64817;DHT22;69411;45.656;11.740;2023-07-16T05:53:50;41.10;39.50
64817;DHT22;69411;45.656;11.740;2023-07-16T05:56:16;41.50;38.60
64817;DHT22;69411;45.656;11.740;2023-07-16T05:58:42;41.90;37.80
64817;DHT22;69411;45.656;11.740;2023-07-16T06:01:09;42.20;37.10
64817;DHT22;69411;45.656;11.740;2023-07-16T06:03:34;42.50;36.70
64817;DHT22;69411;45.656;11.740;2023-07-16T06:06:01;43.00;36.30
64817;DHT22;69411;45.656;11.740;2023-07-16T06:08:26;43.40;35.70
64817;DHT22;69411;45.656;11.740;2023-07-16T06:10:52;43.70;35.50
64817;DHT22;69411;45.656;11.740;2023-07-16T06:15:44;44.50;34.10
64817;DHT22;69411;45.656;11.740;2023-07-16T06:18:10;44.70;33.60
64817;DHT22;69411;45.656;11.740;2023-07-16T06:20:36;44.90;33.40
64817;DHT22;69411;45.656;11.740;2023-07-16T06:23:02;45.00;32.90
64817;DHT22;69411;45.656;11.740;2023-07-16T06:25:28;45.10;32.90
64817;DHT22;69411;45.656;11.740;2023-07-16T06:27:54;45.20;32.60
64817;DHT22;69411;45.656;11.740;2023-07-16T06:30:20;45.50;32.70
64817;DHT22;69411;45.656;11.740;2023-07-16T06:32:47;45.90;32.30
64817;DHT22;69411;45.656;11.740;2023-07-16T06:35:13;46.30;31.70
64817;DHT22;69411;45.656;11.740;2023-07-16T06:37:39;46.60;31.20
64817;DHT22;69411;45.656;11.740;2023-07-16T06:40:06;47.10;30.80
64817;DHT22;69411;45.656;11.740;2023-07-16T06:42:32;47.50;30.30
64817;DHT22;69411;45.656;11.740;2023-07-16T06:45:01;47.80;29.80
64817;DHT22;69411;45.656;11.740;2023-07-16T06:47:27;48.00;29.30
64817;DHT22;69411;45.656;11.740;2023-07-16T06:49:57;47.80;29.00
64817;DHT22;69411;45.656;11.740;2023-07-16T06:52:26;46.80;29.70
64817;DHT22;69411;45.656;11.740;2023-07-16T06:54:54;45.20;31.00
64817;DHT22;69411;45.656;11.740;2023-07-16T06:57:22;43.70;32.90
64817;DHT22;69411;45.656;11.740;2023-07-16T06:59:50;42.20;34.80
64817;DHT22;69411;45.656;11.740;2023-07-16T07:02:17;40.90;36.70
64817;DHT22;69411;45.656;11.740;2023-07-16T07:04:43;39.90;38.40
64817;DHT22;69411;45.656;11.740;2023-07-16T07:07:09;38.80;40.00
64817;DHT22;69411;45.656;11.740;2023-07-16T07:09:35;37.70;41.70
64817;DHT22;69411;45.656;11.740;2023-07-16T07:12:02;37.00;43.20
64817;DHT22;69411;45.656;11.740;2023-07-16T07:14:28;36.60;44.30
64817;DHT22;69411;45.656;11.740;2023-07-16T07:16:54;36.40;45.00
64817;DHT22;69411;45.656;11.740;2023-07-16T07:19:21;36.30;45.40
64817;DHT22;69411;45.656;11.740;2023-07-16T07:21:47;36.10;45.80
64817;DHT22;69411;45.656;11.740;2023-07-16T07:24:13;35.70;46.20
64817;DHT22;69411;45.656;11.740;2023-07-16T07:26:39;35.20;47.20
64817;DHT22;69411;45.656;11.740;2023-07-16T07:29:05;34.90;47.90
64817;DHT22;69411;45.656;11.740;2023-07-16T07:31:31;34.70;48.50
64817;DHT22;69411;45.656;11.740;2023-07-16T07:33:57;34.50;48.80
64817;DHT22;69411;45.656;11.740;2023-07-16T07:36:25;34.50;49.10
64817;DHT22;69411;45.656;11.740;2023-07-16T07:38:50;34.50;49.30
64817;DHT22;69411;45.656;11.740;2023-07-16T07:41:16;34.50;49.30
64817;DHT22;69411;45.656;11.740;2023-07-16T07:43:43;34.60;49.20
64817;DHT22;69411;45.656;11.740;2023-07-16T07:46:09;34.60;49.20
64817;DHT22;69411;45.656;11.740;2023-07-16T07:48:35;34.50;49.40
64817;DHT22;69411;45.656;11.740;2023-07-16T07:51:01;34.60;49.60
64817;DHT22;69411;45.656;11.740;2023-07-16T07:53:27;34.50;49.50
64817;DHT22;69411;45.656;11.740;2023-07-16T07:55:54;34.50;49.70
64817;DHT22;69411;45.656;11.740;2023-07-16T07:58:20;34.30;49.70
64817;DHT22;69411;45.656;11.740;2023-07-16T08:00:46;34.10;50.10
64817;DHT22;69411;45.656;11.740;2023-07-16T08:03:12;34.00;50.20
64817;DHT22;69411;45.656;11.740;2023-07-16T08:05:38;34.00;50.20
64817;DHT22;69411;45.656;11.740;2023-07-16T08:08:04;34.10;50.20
64817;DHT22;69411;45.656;11.740;2023-07-16T08:10:30;34.10;50.30
64817;DHT22;69411;45.656;11.740;2023-07-16T08:12:56;34.10;50.50
64817;DHT22;69411;45.656;11.740;2023-07-16T08:15:22;34.10;50.40
64817;DHT22;69411;45.656;11.740;2023-07-16T08:17:49;34.10;50.60
64817;DHT22;69411;45.656;11.740;2023-07-16T08:20:15;34.10;50.30
64817;DHT22;69411;45.656;11.740;2023-07-16T08:22:41;34.00;50.40
64817;DHT22;69411;45.656;11.740;2023-07-16T08:25:07;34.00;50.60
64817;DHT22;69411;45.656;11.740;2023-07-16T08:27:34;33.90;50.80
64817;DHT22;69411;45.656;11.740;2023-07-16T08:30:00;33.90;51.10
64817;DHT22;69411;45.656;11.740;2023-07-16T08:32:26;33.90;51.30
64817;DHT22;69411;45.656;11.740;2023-07-16T08:34:52;33.70;51.50
64817;DHT22;69411;45.656;11.740;2023-07-16T08:37:18;33.80;51.80
64817;DHT22;69411;45.656;11.740;2023-07-16T08:39:44;33.90;51.80
64817;DHT22;69411;45.656;11.740;2023-07-16T08:42:10;33.90;51.50
64817;DHT22;69411;45.656;11.740;2023-07-16T08:44:38;34.00;51.20
64817;DHT22;69411;45.656;11.740;2023-07-16T08:47:06;33.90;51.10
64817;DHT22;69411;45.656;11.740;2023-07-16T08:49:34;33.80;51.60
64817;DHT22;69411;45.656;11.740;2023-07-16T08:52:01;33.80;51.70
64817;DHT22;69411;45.656;11.740;2023-07-16T08:54:28;33.90;51.90
64817;DHT22;69411;45.656;11.740;2023-07-16T08:56:54;33.90;52.20
64817;DHT22;69411;45.656;11.740;2023-07-16T08:59:22;33.90;52.20
64817;DHT22;69411;45.656;11.740;2023-07-16T09:01:48;34.00;52.10
64817;DHT22;69411;45.656;11.740;2023-07-16T09:04:17;34.10;51.90
64817;DHT22;69411;45.656;11.740;2023-07-16T09:06:43;34.10;51.90
64817;DHT22;69411;45.656;11.740;2023-07-16T09:09:20;34.10;52.20
64817;DHT22;69411;45.656;11.740;2023-07-16T09:11:47;34.00;51.90
64817;DHT22;69411;45.656;11.740;2023-07-16T09:14:19;34.00;52.10
64817;DHT22;69411;45.656;11.740;2023-07-16T09:16:53;33.90;52.20
64817;DHT22;69411;45.656;11.740;2023-07-16T09:19:32;34.00;51.90
64817;DHT22;69411;45.656;11.740;2023-07-16T09:22:01;33.90;52.00
64817;DHT22;69411;45.656;11.740;2023-07-16T09:24:28;33.90;52.40
64817;DHT22;69411;45.656;11.740;2023-07-16T09:26:55;33.90;52.50
64817;DHT22;69411;45.656;11.740;2023-07-16T09:29:22;33.90;52.30
64817;DHT22;69411;45.656;11.740;2023-07-16T09:32:01;33.90;52.20
64817;DHT22;69411;45.656;11.740;2023-07-16T09:34:31;34.00;51.90
64817;DHT22;69411;45.656;11.740;2023-07-16T09:36:58;34.10;51.90
64817;DHT22;69411;45.656;11.740;2023-07-16T09:39:28;34.10;52.00
64817;DHT22;69411;45.656;11.740;2023-07-16T09:41:57;34.10;51.90
64817;DHT22;69411;45.656;11.740;2023-07-16T09:44:47;34.10;51.90
64817;DHT22;69411;45.656;11.740;2023-07-16T09:47:15;34.00;51.90
64817;DHT22;69411;45.656;11.740;2023-07-16T09:49:41;34.00;51.90
64817;DHT22;69411;45.656;11.740;2023-07-16T09:52:09;33.90;51.80
64817;DHT22;69411;45.656;11.740;2023-07-16T09:54:37;33.90;52.10
64817;DHT22;69411;45.656;11.740;2023-07-16T09:57:06;33.90;52.10
64817;DHT22;69411;45.656;11.740;2023-07-16T09:59:37;34.00;52.00
64817;DHT22;69411;45.656;11.740;2023-07-16T10:02:07;34.00;51.80
64817;DHT22;69411;45.656;11.740;2023-07-16T10:04:39;34.10;51.80
64817;DHT22;69411;45.656;11.740;2023-07-16T10:07:06;34.10;51.70
64817;DHT22;69411;45.656;11.740;2023-07-16T10:09:51;34.20;51.60
64817;DHT22;69411;45.656;11.740;2023-07-16T10:12:20;34.20;51.40
64817;DHT22;69411;45.656;11.740;2023-07-16T10:14:51;34.00;51.60
64817;DHT22;69411;45.656;11.740;2023-07-16T10:17:29;34.00;52.00
64817;DHT22;69411;45.656;11.740;2023-07-16T10:22:38;34.10;52.40
64817;DHT22;69411;45.656;11.740;2023-07-16T10:27:50;33.90;52.40
64817;DHT22;69411;45.656;11.740;2023-07-16T10:30:17;34.00;52.40
64817;DHT22;69411;45.656;11.740;2023-07-16T10:32:44;34.00;52.50
64817;DHT22;69411;45.656;11.740;2023-07-16T10:35:12;34.10;52.50
64817;DHT22;69411;45.656;11.740;2023-07-16T10:37:39;34.20;52.20
64817;DHT22;69411;45.656;11.740;2023-07-16T10:40:09;34.20;52.00
64817;DHT22;69411;45.656;11.740;2023-07-16T10:42:36;34.10;52.40
64817;DHT22;69411;45.656;11.740;2023-07-16T10:45:04;34.10;52.50
64817;DHT22;69411;45.656;11.740;2023-07-16T10:47:30;34.00;52.50
64817;DHT22;69411;45.656;11.740;2023-07-16T10:49:56;33.90;52.70
64817;DHT22;69411;45.656;11.740;2023-07-16T10:52:23;33.90;52.70
64817;DHT22;69411;45.656;11.740;2023-07-16T10:54:50;33.90;52.90
64817;DHT22;69411;45.656;11.740;2023-07-16T10:57:20;34.00;53.10
64817;DHT22;69411;45.656;11.740;2023-07-16T10:59:47;34.00;53.30
64817;DHT22;69411;45.656;11.740;2023-07-16T11:02:17;34.00;53.30
64817;DHT22;69411;45.656;11.740;2023-07-16T11:04:46;33.90;53.30
64817;DHT22;69411;45.656;11.740;2023-07-16T11:07:13;33.90;53.20
64817;DHT22;69411;45.656;11.740;2023-07-16T11:09:51;33.80;53.40
64817;DHT22;69411;45.656;11.740;2023-07-16T11:12:23;33.70;53.70
64817;DHT22;69411;45.656;11.740;2023-07-16T11:14:54;33.70;53.80
64817;DHT22;69411;45.656;11.740;2023-07-16T11:17:23;33.70;53.90
64817;DHT22;69411;45.656;11.740;2023-07-16T11:19:51;33.80;53.70
64817;DHT22;69411;45.656;11.740;2023-07-16T11:22:37;33.80;53.50
64817;DHT22;69411;45.656;11.740;2023-07-16T11:25:11;33.70;53.40
64817;DHT22;69411;45.656;11.740;2023-07-16T11:27:42;33.60;53.60
64817;DHT22;69411;45.656;11.740;2023-07-16T11:30:09;33.50;53.50
64817;DHT22;69411;45.656;11.740;2023-07-16T11:32:37;33.40;53.70
64817;DHT22;69411;45.656;11.740;2023-07-16T11:35:05;33.40;53.70
64817;DHT22;69411;45.656;11.740;2023-07-16T11:37:37;33.40;53.70
64817;DHT22;69411;45.656;11.740;2023-07-16T11:40:14;33.40;53.70
64817;DHT22;69411;45.656;11.740;2023-07-16T11:42:41;33.50;53.50
64817;DHT22;69411;45.656;11.740;2023-07-16T11:45:18;33.50;53.40
64817;DHT22;69411;45.656;11.740;2023-07-16T11:47:45;33.50;53.10
64817;DHT22;69411;45.656;11.740;2023-07-16T11:50:12;33.50;52.90
64817;DHT22;69411;45.656;11.740;2023-07-16T11:52:39;33.40;52.70
64817;DHT22;69411;45.656;11.740;2023-07-16T11:55:06;33.40;52.80
64817;DHT22;69411;45.656;11.740;2023-07-16T11:57:32;33.40;52.70
64817;DHT22;69411;45.656;11.740;2023-07-16T11:59:58;33.50;52.80
64817;DHT22;69411;45.656;11.740;2023-07-16T12:02:26;33.60;52.90
64817;DHT22;69411;45.656;11.740;2023-07-16T12:04:53;33.70;52.80
64817;DHT22;69411;45.656;11.740;2023-07-16T12:07:39;33.80;52.60
64817;DHT22;69411;45.656;11.740;2023-07-16T12:10:06;33.90;52.20
64817;DHT22;69411;45.656;11.740;2023-07-16T12:12:33;33.90;52.30
64817;DHT22;69411;45.656;11.740;2023-07-16T12:15:12;33.90;52.20
64817;DHT22;69411;45.656;11.740;2023-07-16T12:17:38;34.00;51.90
64817;DHT22;69411;45.656;11.740;2023-07-16T12:20:05;34.00;51.70
64817;DHT22;69411;45.656;11.740;2023-07-16T12:22:31;34.00;51.60
64817;DHT22;69411;45.656;11.740;2023-07-16T12:24:57;34.00;51.60
64817;DHT22;69411;45.656;11.740;2023-07-16T12:27:23;34.00;51.60
64817;DHT22;69411;45.656;11.740;2023-07-16T12:29:49;34.10;51.50
64817;DHT22;69411;45.656;11.740;2023-07-16T12:32:18;34.20;51.10
64817;DHT22;69411;45.656;11.740;2023-07-16T12:34:44;34.10;51.20
64817;DHT22;69411;45.656;11.740;2023-07-16T12:37:10;34.20;51.30
64817;DHT22;69411;45.656;11.740;2023-07-16T12:42:15;34.30;51.20
64817;DHT22;69411;45.656;11.740;2023-07-16T12:44:41;34.40;51.10
64817;DHT22;69411;45.656;11.740;2023-07-16T12:47:07;34.40;51.00
64817;DHT22;69411;45.656;11.740;2023-07-16T12:49:34;34.40;50.90
64817;DHT22;69411;45.656;11.740;2023-07-16T12:52:07;34.30;51.00
64817;DHT22;69411;45.656;11.740;2023-07-16T12:54:34;34.20;50.80
64817;DHT22;69411;45.656;11.740;2023-07-16T12:57:00;34.10;51.00
64817;DHT22;69411;45.656;11.740;2023-07-16T12:59:26;34.20;51.00
64817;DHT22;69411;45.656;11.740;2023-07-16T13:01:58;34.20;51.00
64817;DHT22;69411;45.656;11.740;2023-07-16T13:04:25;34.30;50.90
64817;DHT22;69411;45.656;11.740;2023-07-16T13:06:53;34.40;50.70
64817;DHT22;69411;45.656;11.740;2023-07-16T13:09:19;34.40;50.30
64817;DHT22;69411;45.656;11.740;2023-07-16T13:11:49;34.50;50.00
64817;DHT22;69411;45.656;11.740;2023-07-16T13:14:17;34.40;49.70
64817;DHT22;69411;45.656;11.740;2023-07-16T13:16:43;34.40;49.60
64817;DHT22;69411;45.656;11.740;2023-07-16T13:19:10;34.50;49.60
64817;DHT22;69411;45.656;11.740;2023-07-16T13:21:40;34.50;49.40
64817;DHT22;69411;45.656;11.740;2023-07-16T13:24:13;34.60;49.30
64817;DHT22;69411;45.656;11.740;2023-07-16T13:26:46;34.60;48.90
64817;DHT22;69411;45.656;11.740;2023-07-16T13:29:13;34.60;46.40
64817;DHT22;69411;45.656;11.740;2023-07-16T13:31:39;34.60;48.40
64817;DHT22;69411;45.656;11.740;2023-07-16T13:34:05;34.50;48.40
64817;DHT22;69411;45.656;11.740;2023-07-16T13:36:31;34.50;48.20
64817;DHT22;69411;45.656;11.740;2023-07-16T13:38:57;34.40;47.40
64817;DHT22;69411;45.656;11.740;2023-07-16T13:41:23;34.40;47.80
64817;DHT22;69411;45.656;11.740;2023-07-16T13:43:51;34.50;48.00
64817;DHT22;69411;45.656;11.740;2023-07-16T13:46:18;34.60;48.10
64817;DHT22;69411;45.656;11.740;2023-07-16T13:48:44;34.80;47.90
64817;DHT22;69411;45.656;11.740;2023-07-16T13:51:10;34.90;47.70
64817;DHT22;69411;45.656;11.740;2023-07-16T13:53:36;34.90;47.40
64817;DHT22;69411;45.656;11.740;2023-07-16T13:56:05;34.90;47.30
64817;DHT22;69411;45.656;11.740;2023-07-16T14:01:00;34.90;47.00
64817;DHT22;69411;45.656;11.740;2023-07-16T14:03:26;34.90;47.20
64817;DHT22;69411;45.656;11.740;2023-07-16T14:05:53;35.00;46.70
64817;DHT22;69411;45.656;11.740;2023-07-16T14:08:19;34.90;46.80
64817;DHT22;69411;45.656;11.740;2023-07-16T14:10:45;34.90;46.70
64817;DHT22;69411;45.656;11.740;2023-07-16T14:13:11;34.80;47.80
64817;DHT22;69411;45.656;11.740;2023-07-16T14:15:38;34.80;48.40
64817;DHT22;69411;45.656;11.740;2023-07-16T14:18:05;34.70;49.40
64817;DHT22;69411;45.656;11.740;2023-07-16T14:20:31;34.60;51.10
64817;DHT22;69411;45.656;11.740;2023-07-16T14:22:59;34.60;50.70
64817;DHT22;69411;45.656;11.740;2023-07-16T14:25:26;34.40;51.60
64817;DHT22;69411;45.656;11.740;2023-07-16T14:27:56;34.40;51.50
64817;DHT22;69411;45.656;11.740;2023-07-16T14:30:24;34.40;51.30
64817;DHT22;69411;45.656;11.740;2023-07-16T14:32:51;34.40;51.20
64817;DHT22;69411;45.656;11.740;2023-07-16T14:35:17;34.50;51.50
64817;DHT22;69411;45.656;11.740;2023-07-16T14:37:45;34.50;51.80
64817;DHT22;69411;45.656;11.740;2023-07-16T14:40:15;34.40;52.00
64817;DHT22;69411;45.656;11.740;2023-07-16T14:42:41;34.40;52.40
64817;DHT22;69411;45.656;11.740;2023-07-16T14:45:09;34.30;52.70
64817;DHT22;69411;45.656;11.740;2023-07-16T14:47:35;34.20;52.80
64817;DHT22;69411;45.656;11.740;2023-07-16T14:50:01;34.00;53.00
64817;DHT22;69411;45.656;11.740;2023-07-16T14:52:29;34.00;53.30
64817;DHT22;69411;45.656;11.740;2023-07-16T14:54:55;34.00;53.70
64817;DHT22;69411;45.656;11.740;2023-07-16T14:57:24;33.90;53.90
64817;DHT22;69411;45.656;11.740;2023-07-16T14:59:51;33.80;54.00
64817;DHT22;69411;45.656;11.740;2023-07-16T15:02:17;33.70;54.60
64817;DHT22;69411;45.656;11.740;2023-07-16T15:04:43;33.70;54.70
64817;DHT22;69411;45.656;11.740;2023-07-16T15:07:09;33.70;54.40
64817;DHT22;69411;45.656;11.740;2023-07-16T15:09:35;33.70;54.10
64817;DHT22;69411;45.656;11.740;2023-07-16T15:12:07;33.80;54.10
64817;DHT22;69411;45.656;11.740;2023-07-16T15:14:33;33.70;54.20
64817;DHT22;69411;45.656;11.740;2023-07-16T15:16:59;33.70;54.20
64817;DHT22;69411;45.656;11.740;2023-07-16T15:19:25;33.70;54.60
64817;DHT22;69411;45.656;11.740;2023-07-16T15:21:51;33.70;54.60
64817;DHT22;69411;45.656;11.740;2023-07-16T15:24:23;33.70;54.50
64817;DHT22;69411;45.656;11.740;2023-07-16T15:26:50;33.80;54.40
64817;DHT22;69411;45.656;11.740;2023-07-16T15:29:16;33.70;54.40
64817;DHT22;69411;45.656;11.740;2023-07-16T15:31:42;33.70;54.60
64817;DHT22;69411;45.656;11.740;2023-07-16T15:34:08;33.70;54.70
64817;DHT22;69411;45.656;11.740;2023-07-16T15:36:34;33.70;54.60
64817;DHT22;69411;45.656;11.740;2023-07-16T15:39:00;33.70;54.50